LFT - Lafayette Rgnl/Paul Fournet Fld

Pirep is a free, collaborative database of all public and private airports located within the United States. All pilots are welcome to contribute, edit, and improve any airport they have local knowledge about, no registration required.
Are you familiar with this airport? Help out other pilots by adding your local knowledge.
Uploaded photos will be licensed under a CC BY-SA 4.0 license. Please only upload photos you have the rights to use.
Tags
Public
Undocu­mented
METAR / TAF
Edit Tags
Food
Camping
Lodging
Car Rental
Bicycles
Swimming
Golfing
Fishing
Hot Springs
Museum
Flying Clubs
Airpark
Upcoming Events
No upcoming events. Is anything happening here soon?
*
*
*

Where exactly on/near the airport is this event taking place?

Is there a webpage with more information for this event?

Who should be contacted for more information?

What is this event all about?

Repeat every
Description
Transient Parking
Fuel Location
Landing & Tie-down Fees
Crew Car Availability
Flying Clubs
WiFi Access
Airport Statistics
Location: Lafayette, LA
Elevation: 41ft
Sectional: Houston
Activation date: Apr 1940
Fuel: 100LL, A, A+ (prices)
Runway 04R/22L: 8,000ft
Runway 11/29: 5,400ft
Runway 04L/22R: 4,099ft
Access: Open to the public
Current Weather — VFR
  • Weather data is strictly informational and not for flight planning purposes.
  • METAR
    2024-04-24 06:53:00 CDT
    Ceiling Wind Temperature Dewpoint Weather Visbility
    Sky clear Calm 60°F 60°F N/A 10SM
    Raw: KLFT 241153Z 00000KT 10SM CLR 16/16 A3010 RMK AO2 SLP192 T01610161 10178 20161 53004
  • TAF
    2024-04-24 07:00:00 CDT – 2024-04-24 08:00:00 CDT
    Ceiling Wind Weather Visbility
    Sky clear Variable N/A 6SM
    Clouds: Few @ 6,000ft, Few @ 19,000ft
    Raw: KLFT 241120Z 2412/2512 VRB03KT P6SM FEW060 FEW190 FM241300 VRB05KT P6SM FEW180 FM250900 00000KT 4SM BR SKC
  • TAF
    2024-04-24 08:00:00 CDT – 2024-04-25 04:00:00 CDT
    Ceiling Wind Weather Visbility
    Sky clear Variable N/A 6SM
    Clouds: Few @ 18,000ft
    Raw: KLFT 241120Z 2412/2512 VRB03KT P6SM FEW060 FEW190 FM241300 VRB05KT P6SM FEW180 FM250900 00000KT 4SM BR SKC
  • TAF
    2024-04-25 04:00:00 CDT – 2024-04-25 07:00:00 CDT
    Ceiling Wind Weather Visbility
    Sky clear Calm Mist 4SM
    Clouds: @ ft
    Raw: KLFT 241120Z 2412/2512 VRB03KT P6SM FEW060 FEW190 FM241300 VRB05KT P6SM FEW180 FM250900 00000KT 4SM BR SKC
Click/tap to add an annotation marker to the map
Airport Webcams
No webcams added yet.
Direct links to live image URLs will be displayed inline on this page. URLs to separate webpages will be linked to.
URL:
Direct links to live image URLs will be displayed inline on this page. URLs to separate webpages will be linked to.
URL:
Remarks
  • Ppr for unscheduled acr opns with more than 30 psgr seats call amgr 337-703-4800.
  • Rwy 11/29; rwy 04l/22r & rwy 04r/22l lgtd distance remaining signs.
  • 155 ft oil rig 1 nm se of arpt.
  • Migratory birds on & invof arpt.
  • Ctc gnd ctl prior to push back fm terminal.
Comments
Leave a comment What was your experience like at this airport?